createdAt,value
2022-11-05T00:01:16.386Z,56.58
2022-11-05T00:04:03.789Z,56.65
2022-11-05T00:06:49.707Z,55.60
2022-11-05T00:09:32.541Z,55.97
2022-11-05T00:12:21.503Z,56.68
2022-11-05T00:15:08.043Z,56.08
2022-11-05T00:17:36.743Z,57.29
2022-11-05T00:20:08.189Z,55.55
2022-11-05T00:22:54.151Z,57.39
2022-11-05T00:25:23.693Z,58.28
2022-11-05T00:27:53.633Z,58.25
2022-11-05T00:30:29.352Z,58.53
2022-11-05T00:33:02.934Z,57.54
2022-11-05T00:35:32.770Z,56.36
2022-11-05T00:38:01.160Z,56.62
2022-11-05T00:40:29.808Z,57.06
2022-11-05T00:43:15.796Z,57.26
2022-11-05T00:45:44.913Z,58.04
2022-11-05T00:48:30.906Z,58.19
2022-11-05T00:51:00.883Z,58.21
2022-11-05T00:53:29.365Z,58.57
2022-11-05T00:55:57.793Z,58.51
2022-11-05T00:58:27.362Z,59.35
2022-11-05T01:00:57.790Z,58.67
2022-11-05T01:03:29.783Z,57.31
2022-11-05T01:06:06.830Z,57.47
2022-11-05T01:08:35.414Z,57.05
2022-11-05T01:11:10.773Z,57.58
2022-11-05T01:13:40.108Z,58.17
2022-11-05T01:16:10.931Z,58.79
2022-11-05T01:18:39.857Z,58.51
2022-11-05T01:21:14.174Z,57.67
2022-11-05T01:23:43.006Z,56.94
2022-11-05T01:26:11.175Z,57.67
2022-11-05T01:28:39.651Z,57.41
2022-11-05T01:31:08.237Z,56.92
2022-11-05T01:33:36.644Z,58.16
2022-11-05T01:36:06.440Z,58.01
2022-11-05T01:38:36.346Z,57.86
2022-11-05T01:41:05.424Z,56.83
2022-11-05T01:43:48.069Z,58.75
2022-11-05T01:46:19.815Z,58.52
2022-11-05T01:48:50.122Z,58.64
2022-11-05T01:51:21.447Z,59.65
2022-11-05T01:53:56.897Z,59.64
2022-11-05T01:56:36.289Z,58.66
2022-11-05T01:59:09.317Z,57.57
2022-11-05T02:01:38.315Z,58.33
2022-11-05T02:04:11.345Z,58.77
2022-11-05T02:06:46.322Z,59.09
2022-11-05T02:09:22.067Z,59.43
2022-11-05T02:11:52.438Z,58.85
2022-11-05T02:14:21.536Z,59.02
2022-11-05T02:16:54.533Z,60.12
2022-11-05T02:19:58.599Z,59.42
2022-11-05T02:23:04.561Z,59.18
2022-11-05T02:26:06.744Z,58.34
2022-11-05T02:28:59.534Z,56.35
2022-11-05T02:31:35.651Z,56.61
2022-11-05T02:34:14.558Z,56.68
2022-11-05T02:36:51.668Z,57.79
2022-11-05T02:39:35.473Z,58.11
2022-11-05T02:42:12.947Z,58.63
2022-11-05T02:44:49.260Z,57.90
2022-11-05T02:47:26.686Z,57.93
2022-11-05T02:50:04.642Z,57.05
2022-11-05T02:52:39.322Z,56.60
2022-11-05T02:55:18.574Z,56.53
2022-11-05T02:57:48.797Z,57.63
2022-11-05T03:00:50.999Z,59.65
2022-11-05T03:03:26.533Z,60.08
2022-11-05T03:06:34.678Z,59.95
2022-11-05T03:09:35.507Z,58.83
2022-11-05T03:12:16.401Z,57.93
2022-11-05T03:14:51.760Z,59.31
2022-11-05T03:17:31.396Z,59.39
2022-11-05T03:20:09.860Z,58.44
2022-11-05T03:22:42.842Z,59.36
2022-11-05T03:25:17.219Z,58.52
2022-11-05T03:27:49.813Z,59.03
2022-11-05T03:30:20.410Z,58.32
2022-11-05T03:32:55.277Z,58.22
2022-11-05T03:35:28.363Z,57.93
2022-11-05T03:38:01.821Z,58.11
2022-11-05T03:40:36.200Z,58.15
2022-11-05T03:43:09.044Z,58.84
2022-11-05T03:45:41.226Z,60.55
2022-11-05T03:48:12.490Z,60.09
2022-11-05T03:50:49.970Z,60.41
2022-11-05T03:53:22.893Z,61.13
2022-11-05T03:55:56.448Z,61.92
2022-11-05T03:58:26.273Z,61.96
2022-11-05T04:00:54.959Z,60.99
2022-11-05T04:03:23.186Z,61.94
2022-11-05T04:06:09.469Z,60.29
2022-11-05T04:08:55.358Z,59.70
2022-11-05T04:11:41.563Z,58.99
2022-11-05T04:14:10.131Z,59.26
2022-11-05T04:16:56.192Z,58.87
2022-11-05T04:19:38.500Z,58.46
2022-11-05T04:22:25.684Z,59.66
2022-11-05T04:24:54.256Z,58.48
2022-11-05T04:27:23.497Z,59.00
2022-11-05T04:30:09.600Z,59.82
2022-11-05T04:32:38.113Z,59.01
2022-11-05T04:35:07.124Z,58.77
2022-11-05T04:37:37.058Z,58.64
2022-11-05T04:40:08.786Z,58.42
2022-11-05T04:42:37.257Z,58.52
2022-11-05T04:45:08.898Z,58.71
2022-11-05T04:47:37.927Z,60.01
2022-11-05T04:50:07.071Z,59.25
2022-11-05T04:52:37.087Z,59.06
2022-11-05T04:55:06.177Z,58.37
2022-11-05T04:57:34.765Z,59.07
2022-11-05T05:00:03.883Z,58.02
2022-11-05T05:02:32.302Z,58.34
2022-11-05T05:05:00.830Z,58.22
2022-11-05T05:07:29.679Z,57.44
2022-11-05T05:09:59.536Z,56.27
2022-11-05T05:12:29.585Z,57.32
2022-11-05T05:14:58.099Z,56.94
2022-11-05T05:17:28.885Z,57.27
2022-11-05T05:20:15.016Z,56.24
2022-11-05T05:22:43.546Z,55.85
2022-11-05T05:25:13.672Z,55.81
2022-11-05T05:27:42.156Z,57.72
2022-11-05T05:30:12.561Z,57.74
2022-11-05T05:32:41.623Z,57.43
2022-11-05T05:35:10.911Z,56.99
2022-11-05T05:37:39.389Z,57.24
2022-11-05T05:40:09.065Z,57.00
2022-11-05T05:42:42.836Z,58.04
2022-11-05T05:45:13.105Z,56.84
2022-11-05T05:47:41.548Z,56.21
2022-11-05T05:50:10.102Z,57.92
2022-11-05T05:52:38.563Z,57.40
2022-11-05T05:55:07.814Z,57.39
2022-11-05T05:57:36.460Z,57.20
2022-11-05T06:00:07.070Z,57.71
2022-11-05T06:02:41.577Z,57.82
2022-11-05T06:05:11.237Z,57.77
2022-11-05T06:07:39.798Z,59.45
2022-11-05T06:10:09.072Z,58.41
2022-11-05T06:12:37.659Z,59.09
2022-11-05T06:15:08.417Z,59.78
2022-11-05T06:17:36.978Z,59.18
2022-11-05T06:20:06.210Z,58.60
2022-11-05T06:22:34.604Z,57.68
2022-11-05T06:25:03.158Z,57.70
2022-11-05T06:27:32.031Z,57.47
2022-11-05T06:30:00.827Z,57.25
2022-11-05T06:32:31.383Z,58.48
2022-11-05T06:34:59.941Z,57.58
2022-11-05T06:37:28.348Z,56.62
2022-11-05T06:39:57.542Z,56.75
2022-11-05T06:42:25.986Z,56.17
2022-11-05T06:44:55.049Z,56.55
2022-11-05T06:47:23.538Z,56.08
2022-11-05T06:49:53.585Z,55.83
2022-11-05T06:52:22.443Z,55.34
2022-11-05T06:54:50.523Z,55.34
2022-11-05T06:57:18.916Z,54.86
2022-11-05T06:59:47.515Z,55.52
2022-11-05T07:02:18.051Z,53.79
2022-11-05T07:04:46.631Z,53.36
2022-11-05T07:07:16.440Z,54.45
2022-11-05T07:09:44.989Z,54.88
2022-11-05T07:12:14.414Z,54.54
2022-11-05T07:18:26.626Z,55.26
2022-11-05T07:20:55.386Z,53.92
2022-11-05T07:23:51.034Z,53.55
2022-11-05T07:26:20.059Z,53.08
2022-11-05T07:28:48.482Z,52.57
2022-11-05T07:31:17.017Z,52.15
2022-11-05T07:33:45.494Z,53.18
2022-11-05T07:36:15.198Z,53.46
2022-11-05T07:38:46.991Z,53.46
2022-11-05T07:41:15.786Z,53.90
2022-11-05T07:43:43.978Z,53.44
2022-11-05T07:46:23.608Z,52.56
2022-11-05T07:48:52.376Z,52.98
2022-11-05T07:51:26.854Z,53.48
2022-11-05T07:53:56.733Z,54.56
2022-11-05T07:56:25.489Z,54.52
2022-11-05T07:58:59.679Z,52.85
2022-11-05T08:01:28.458Z,51.94
2022-11-05T08:03:57.298Z,52.00
2022-11-05T08:06:25.928Z,52.45
2022-11-05T08:08:56.904Z,51.05
2022-11-05T08:11:25.561Z,52.15
2022-11-05T08:13:55.893Z,53.17
2022-11-05T08:16:24.407Z,52.71
2022-11-05T08:19:05.700Z,53.60
2022-11-05T08:21:34.719Z,53.59
2022-11-05T08:24:05.994Z,52.88
2022-11-05T08:26:35.798Z,52.64
2022-11-05T08:29:06.212Z,53.03
2022-11-05T08:31:39.404Z,51.89
2022-11-05T08:34:53.773Z,52.35
2022-11-05T08:37:32.766Z,52.59
2022-11-05T08:40:07.885Z,53.87
2022-11-05T08:42:39.841Z,52.35
2022-11-05T08:45:12.255Z,52.81
2022-11-05T08:47:41.374Z,52.72
2022-11-05T08:50:13.227Z,53.52
2022-11-05T08:52:44.000Z,54.89
2022-11-05T08:55:19.226Z,53.58
2022-11-05T08:57:50.454Z,53.46
2022-11-05T09:00:19.522Z,53.94
2022-11-05T09:02:47.980Z,53.90
2022-11-05T09:05:16.553Z,52.90
2022-11-05T09:07:45.041Z,52.45
2022-11-05T09:10:13.624Z,51.22
2022-11-05T09:12:43.226Z,51.92
2022-11-05T09:15:12.454Z,52.61
2022-11-05T09:17:41.520Z,53.63
2022-11-05T09:20:12.513Z,53.09
2022-11-05T09:22:43.416Z,52.59
2022-11-05T09:25:12.700Z,51.90
2022-11-05T09:27:41.112Z,52.22
2022-11-05T09:30:12.548Z,52.55
2022-11-05T09:32:41.100Z,53.91
2022-11-05T09:35:10.513Z,52.72
2022-11-05T09:37:40.403Z,52.71
2022-11-05T09:40:17.076Z,54.45
2022-11-05T09:42:47.526Z,55.19
2022-11-05T09:45:20.546Z,54.77
2022-11-05T09:47:53.572Z,56.39
2022-11-05T09:50:27.215Z,55.76
2022-11-05T09:52:55.907Z,53.54
2022-11-05T09:55:27.375Z,54.00
2022-11-05T09:57:59.000Z,52.65
2022-11-05T10:00:30.535Z,52.70
2022-11-05T10:03:23.672Z,53.07
2022-11-05T10:06:12.286Z,54.36
2022-11-05T10:08:45.146Z,53.18
2022-11-05T10:11:57.840Z,52.39
2022-11-05T10:15:35.726Z,52.31
2022-11-05T10:18:21.312Z,51.44
2022-11-05T10:20:50.257Z,51.28
2022-11-05T10:23:41.818Z,51.39
2022-11-05T10:26:16.007Z,50.56
2022-11-05T10:28:44.705Z,50.42
2022-11-05T10:31:47.295Z,50.32
2022-11-05T10:34:21.221Z,50.65
2022-11-05T10:37:21.420Z,50.46
2022-11-05T10:39:55.729Z,50.99
2022-11-05T10:42:47.121Z,49.86
2022-11-05T10:45:29.202Z,50.23
2022-11-05T10:48:13.525Z,52.12
2022-11-05T10:50:48.910Z,49.75
2022-11-05T10:53:23.013Z,48.57
2022-11-05T10:55:55.281Z,47.32
2022-11-05T10:58:29.186Z,46.91
2022-11-05T11:01:13.804Z,48.68
2022-11-05T11:03:46.056Z,48.76
2022-11-05T11:06:27.210Z,49.66
2022-11-05T11:08:58.374Z,50.01
2022-11-05T11:11:32.198Z,50.90
2022-11-05T11:14:08.467Z,50.55
2022-11-05T11:16:41.050Z,50.85
2022-11-05T11:19:41.482Z,52.95
2022-11-05T11:22:40.405Z,52.50
2022-11-05T11:27:09.329Z,51.09
2022-11-05T11:29:48.182Z,51.45
2022-11-05T11:32:21.830Z,51.27
2022-11-05T11:34:57.610Z,51.25
2022-11-05T11:37:29.368Z,52.10
2022-11-05T11:41:01.296Z,53.23
2022-11-05T11:43:37.037Z,51.65
2022-11-05T11:46:12.488Z,52.47
2022-11-05T11:48:47.713Z,52.64
2022-11-05T11:51:20.142Z,52.70
2022-11-05T11:53:51.228Z,51.95
2022-11-05T11:56:25.089Z,52.28
2022-11-05T11:58:55.318Z,53.44
2022-11-05T12:02:12.299Z,52.99
2022-11-05T12:05:08.609Z,53.87
2022-11-05T12:07:55.298Z,54.59
2022-11-05T12:10:44.781Z,54.88
2022-11-05T12:14:02.597Z,55.66
2022-11-05T12:17:15.646Z,54.08
2022-11-05T12:20:10.713Z,53.16
2022-11-05T12:23:03.604Z,53.73
2022-11-05T12:25:45.691Z,53.97
2022-11-05T12:29:16.772Z,55.85
2022-11-05T12:31:50.412Z,55.76
2022-11-05T12:34:39.561Z,55.76
2022-11-05T12:37:39.819Z,56.32
2022-11-05T12:40:30.887Z,54.51
2022-11-05T12:43:12.102Z,53.73
2022-11-05T12:45:47.036Z,54.64
2022-11-05T12:48:37.227Z,55.16
2022-11-05T12:51:30.564Z,54.58
2022-11-05T12:54:23.092Z,54.44
2022-11-05T12:56:57.566Z,54.13
2022-11-05T12:59:33.701Z,53.75
2022-11-05T13:02:24.151Z,54.08
2022-11-05T13:05:14.142Z,53.30
2022-11-05T13:12:07.753Z,54.44
2022-11-05T13:14:48.753Z,55.13
2022-11-05T13:17:44.836Z,57.05
2022-11-05T13:20:21.182Z,55.83
2022-11-05T13:22:57.325Z,53.86
2022-11-05T13:25:34.053Z,53.91
2022-11-05T13:28:14.886Z,54.16
2022-11-05T13:30:48.037Z,54.26
2022-11-05T13:33:33.561Z,55.90
2022-11-05T13:36:28.917Z,54.52
2022-11-05T13:39:10.347Z,53.16
2022-11-05T13:42:00.566Z,52.79
2022-11-05T13:45:08.222Z,52.77
2022-11-05T13:48:04.293Z,54.71
2022-11-05T13:50:58.075Z,54.86
2022-11-05T13:53:57.842Z,54.73
2022-11-05T13:56:39.344Z,53.85
2022-11-05T13:59:46.736Z,53.73
2022-11-05T14:02:19.370Z,54.37
2022-11-05T14:05:01.222Z,54.91
2022-11-05T14:07:34.866Z,54.92
2022-11-05T14:10:28.115Z,54.58
2022-11-05T14:12:59.992Z,54.54
2022-11-05T14:15:31.205Z,55.26
2022-11-05T14:18:01.872Z,55.94
2022-11-05T14:20:45.557Z,57.00
2022-11-05T14:23:39.981Z,57.55
2022-11-05T14:26:22.636Z,56.07
2022-11-05T14:29:10.710Z,54.51
2022-11-05T14:32:12.842Z,54.80
2022-11-05T14:34:50.549Z,54.38
2022-11-05T14:37:34.838Z,54.40
2022-11-05T14:40:38.068Z,54.79
2022-11-05T14:43:18.549Z,54.45
2022-11-05T14:45:57.105Z,55.41
2022-11-05T14:48:35.923Z,55.93
2022-11-05T14:51:20.743Z,55.58
2022-11-05T14:53:59.581Z,56.40
2022-11-05T14:56:29.272Z,55.81
2022-11-05T14:59:31.825Z,56.30
2022-11-05T15:02:13.265Z,56.46
2022-11-05T15:04:45.796Z,56.10
2022-11-05T15:07:42.998Z,55.09
2022-11-05T15:10:15.724Z,55.63
2022-11-05T15:12:48.362Z,56.39
2022-11-05T15:15:23.439Z,56.06
2022-11-05T15:18:36.417Z,56.35
2022-11-05T15:21:31.829Z,55.15
2022-11-05T15:24:16.700Z,55.50
2022-11-05T15:26:55.309Z,54.40
2022-11-05T15:29:57.976Z,54.91
2022-11-05T15:32:52.168Z,56.21
2022-11-05T15:42:31.140Z,55.98
2022-11-05T15:45:00.509Z,55.03
2022-11-05T15:47:30.281Z,56.06
2022-11-05T15:50:01.473Z,54.72
2022-11-05T15:52:50.457Z,54.82
2022-11-05T15:55:23.950Z,57.14
2022-11-05T15:57:58.442Z,58.27
2022-11-05T16:00:30.167Z,58.14
2022-11-05T16:03:01.123Z,57.89
2022-11-05T16:05:34.036Z,57.13
2022-11-05T16:08:05.770Z,56.48
2022-11-05T16:10:38.200Z,58.03
2022-11-05T16:13:23.976Z,56.20
2022-11-05T16:15:56.777Z,57.05
2022-11-05T16:18:30.977Z,57.13
2022-11-05T16:21:05.536Z,56.08
2022-11-05T16:23:46.837Z,58.97
2022-11-05T16:29:33.710Z,56.75
2022-11-05T16:32:04.222Z,56.87
2022-11-05T16:34:38.074Z,57.27
2022-11-05T16:37:07.983Z,56.63
2022-11-05T16:39:55.453Z,57.22
2022-11-05T16:42:40.284Z,57.31
2022-11-05T16:45:20.633Z,58.14
2022-11-05T16:48:01.960Z,57.78
2022-11-05T16:50:33.409Z,57.57
2022-11-05T16:53:02.241Z,58.40
2022-11-05T16:55:32.363Z,58.93
2022-11-05T16:58:05.640Z,57.21
2022-11-05T17:00:34.745Z,57.60
2022-11-05T17:03:05.304Z,57.30
2022-11-05T17:05:36.227Z,56.64
2022-11-05T17:08:05.431Z,58.87
2022-11-05T17:10:36.568Z,60.91
2022-11-05T17:13:05.867Z,58.73
2022-11-05T17:15:36.270Z,56.91
2022-11-05T17:18:07.182Z,58.07
2022-11-05T17:20:43.411Z,58.62
2022-11-05T17:23:16.472Z,58.66
2022-11-05T17:25:50.280Z,58.41
2022-11-05T17:28:21.385Z,58.70
2022-11-05T17:30:55.394Z,59.03
2022-11-05T17:33:25.243Z,58.92
2022-11-05T17:36:18.362Z,58.15
2022-11-05T17:39:01.205Z,57.35
2022-11-05T17:41:34.812Z,57.98
2022-11-05T17:44:04.150Z,57.89
2022-11-05T17:46:39.121Z,55.70
2022-11-05T17:49:18.963Z,55.17
2022-11-05T17:51:53.455Z,55.10
2022-11-05T17:54:29.102Z,54.86
2022-11-05T17:57:26.375Z,55.40
2022-11-05T18:00:01.740Z,56.91
2022-11-05T18:02:43.731Z,57.29
2022-11-05T18:05:17.572Z,56.79
2022-11-05T18:07:48.923Z,56.62
2022-11-05T18:10:30.156Z,56.82
2022-11-05T18:13:12.244Z,56.54
2022-11-05T18:15:42.215Z,56.75
2022-11-05T18:18:12.943Z,58.45
2022-11-05T18:20:43.269Z,58.57
2022-11-05T18:23:16.393Z,57.03
2022-11-05T18:25:51.562Z,56.91
2022-11-05T18:28:22.033Z,56.62
2022-11-05T18:30:51.424Z,55.39
2022-11-05T18:33:21.422Z,56.78
2022-11-05T18:35:56.786Z,58.09
2022-11-05T18:38:28.658Z,57.75
2022-11-05T18:41:07.386Z,57.25
2022-11-05T18:43:38.323Z,56.94
2022-11-05T18:46:08.130Z,56.83
2022-11-05T18:48:41.738Z,57.75
2022-11-05T18:51:11.956Z,58.51
2022-11-05T18:53:46.819Z,58.06
2022-11-05T18:56:20.866Z,59.29
2022-11-05T18:59:08.407Z,58.98
2022-11-05T19:01:41.662Z,60.04
2022-11-05T19:04:10.823Z,57.94
2022-11-05T19:06:40.409Z,57.72
2022-11-05T19:09:12.211Z,57.06
2022-11-05T19:11:42.143Z,57.10
2022-11-05T19:14:13.460Z,57.40
2022-11-05T19:16:42.435Z,56.94
2022-11-05T19:19:12.823Z,56.71
2022-11-05T19:21:42.293Z,58.31
2022-11-05T19:24:16.641Z,59.94
2022-11-05T19:26:46.837Z,59.19
2022-11-05T19:29:17.181Z,58.20
2022-11-05T19:31:46.503Z,56.76
2022-11-05T19:34:15.534Z,57.05
2022-11-05T19:36:44.687Z,58.64
2022-11-05T19:39:15.330Z,58.59
2022-11-05T19:41:44.385Z,57.28
2022-11-05T19:44:13.446Z,58.19
2022-11-05T19:46:44.461Z,60.29
2022-11-05T19:49:13.641Z,59.63
2022-11-05T19:51:42.678Z,59.75
2022-11-05T19:54:12.104Z,58.31
2022-11-05T19:56:41.058Z,58.22
2022-11-05T19:59:10.301Z,57.97
2022-11-05T20:01:43.102Z,58.72
2022-11-05T20:04:18.274Z,59.20
2022-11-05T20:06:47.094Z,57.92
2022-11-05T20:09:21.513Z,58.13
2022-11-05T20:11:53.904Z,58.21
2022-11-05T20:14:22.774Z,58.88
2022-11-05T20:16:51.797Z,56.84
2022-11-05T20:19:23.310Z,57.85
2022-11-05T20:21:52.020Z,58.11
2022-11-05T20:24:24.619Z,57.65
2022-11-05T20:26:55.285Z,57.40
2022-11-05T20:29:26.948Z,55.95
2022-11-05T20:31:59.311Z,57.10
2022-11-05T20:34:30.589Z,58.59
2022-11-05T20:36:59.348Z,59.56
2022-11-05T20:39:27.730Z,58.49
2022-11-05T20:41:56.910Z,57.60
2022-11-05T20:44:25.527Z,58.67
2022-11-05T20:46:53.927Z,57.86
2022-11-05T20:49:25.364Z,57.63
2022-11-05T20:52:00.345Z,58.15
2022-11-05T20:54:29.257Z,57.52
2022-11-05T20:57:00.135Z,57.67
2022-11-05T20:59:28.638Z,58.81
2022-11-05T21:01:57.207Z,57.73
2022-11-05T21:04:25.432Z,55.52
2022-11-05T21:06:55.308Z,53.85
2022-11-05T21:09:23.879Z,54.67
2022-11-05T21:12:06.081Z,55.93
2022-11-05T21:14:34.600Z,55.89
2022-11-05T21:17:03.442Z,54.11
2022-11-05T21:19:32.095Z,55.41
2022-11-05T21:22:03.260Z,55.71
2022-11-05T21:24:32.870Z,55.67
2022-11-05T21:27:04.187Z,56.82
2022-11-05T21:29:32.697Z,56.63
2022-11-05T21:32:01.390Z,56.89
2022-11-05T21:34:29.938Z,56.99
2022-11-05T21:36:59.043Z,56.34
2022-11-05T21:39:29.144Z,55.09
2022-11-05T21:41:57.654Z,55.86
2022-11-05T21:44:26.247Z,57.15
2022-11-05T21:46:57.519Z,57.35
2022-11-05T21:49:26.352Z,57.20
2022-11-05T21:52:12.190Z,57.33
2022-11-05T21:54:59.262Z,57.71
2022-11-05T21:57:45.330Z,57.67
2022-11-05T22:00:14.505Z,56.93
2022-11-05T22:02:43.123Z,56.47
2022-11-05T22:05:11.641Z,55.57
2022-11-05T22:07:40.642Z,56.20
2022-11-05T22:10:16.067Z,55.73
2022-11-05T22:12:45.585Z,56.54
2022-11-05T22:15:14.181Z,56.70
2022-11-05T22:17:46.605Z,56.56
2022-11-05T22:20:16.460Z,55.46
2022-11-05T22:22:45.327Z,55.64
2022-11-05T22:25:16.181Z,56.46
2022-11-05T22:27:44.977Z,55.79
2022-11-05T22:30:13.952Z,54.43
2022-11-05T22:32:42.441Z,54.39
2022-11-05T22:35:11.308Z,55.42
2022-11-05T22:37:39.855Z,57.32
2022-11-05T22:40:09.819Z,57.76
2022-11-05T22:42:39.808Z,57.12
2022-11-05T22:45:09.238Z,55.62
2022-11-05T22:47:37.713Z,56.30
2022-11-05T22:50:07.229Z,57.27
2022-11-05T22:52:35.650Z,56.73
2022-11-05T22:55:06.367Z,55.95
2022-11-05T22:57:34.991Z,56.71
2022-11-05T23:00:13.758Z,57.77
2022-11-05T23:02:42.427Z,57.72
2022-11-05T23:05:10.812Z,57.31
2022-11-05T23:07:56.695Z,57.17
2022-11-05T23:10:42.446Z,57.67
2022-11-05T23:13:10.917Z,58.00
2022-11-05T23:19:23.905Z,57.93
2022-11-05T23:22:09.913Z,58.55
2022-11-05T23:24:38.582Z,58.59
2022-11-05T23:27:07.111Z,58.41
2022-11-05T23:29:35.573Z,58.82
2022-11-05T23:32:22.978Z,58.84
2022-11-05T23:34:55.230Z,59.05
2022-11-05T23:37:42.482Z,58.27
2022-11-05T23:40:15.008Z,58.82
2022-11-05T23:43:01.312Z,59.73
2022-11-05T23:45:47.919Z,59.82
2022-11-05T23:48:21.612Z,59.65
2022-11-05T23:50:53.225Z,58.98
2022-11-05T23:53:21.785Z,58.75
2022-11-05T23:55:50.782Z,58.69
2022-11-05T23:58:19.889Z,57.70
